Flight Track Log - Related Links

Times and Time Zones

All times are in EDT time to prevent confusion due to time zone crossing. See the BER6771 flight status page for this flight to view local times or setup timezone preferences in your user account.

Time Position Orientation Groundspeed Altitude Reporting Facility
EDT Latitude Longitude Course Direction KTS MPH feet Rate Location/Type
Wed 01:17:00 AM 49.9146 10.1378 305° West  Level Estimated
Wed 01:18:00 AM 49.9521 10.0515 304° West  Level Estimated
Wed 01:19:00 AM 49.9894 9.9651 304° West  Level Estimated
Wed 01:20:00 AM 50.0268 9.8786 304° West  Level Estimated
Wed 01:21:00 AM 50.0640 9.7919 304° West  Level Estimated
Wed 01:22:00 AM 50.1012 9.7051 304° West  Level Estimated
Wed 01:23:00 AM 50.1383 9.6181 304° West  Level Estimated
Wed 01:24:00 AM 50.1754 9.5310 304° West  Level Estimated
Wed 01:25:00 AM 50.2123 9.4438 304° West  Level Estimated
Wed 01:26:00 AM 50.2493 9.3565 303° West  Level Estimated
Wed 01:27:00 AM 50.2861 9.2690 303° West  Level Estimated
Wed 01:28:00 AM 50.3229 9.1813 303° West  Level Estimated
Wed 01:29:00 AM 50.3596 9.0936 303° West  Level Estimated
Wed 01:30:00 AM 50.3963 9.0057 303° West  Level Estimated
Wed 01:31:00 AM 50.4329 8.9177 303° West  Level Estimated
Wed 01:32:00 AM 50.4694 8.8295 303° West  Level Estimated
Wed 01:33:00 AM 50.5059 8.7412 303° West  Level Estimated
Wed 01:34:00 AM 50.5423 8.6527 303° West  Level Estimated
Wed 01:35:00 AM 50.5786 8.5641 303° West  Level Estimated
Wed 01:36:00 AM 50.6148 8.4754 303° West  Level Estimated
Wed 01:37:00 AM 50.6510 8.3866 303° West  Level Estimated
Wed 01:38:00 AM 50.6871 8.2976 303° West  Level Estimated
Wed 01:39:00 AM 50.7232 8.2085 303° West  Level Estimated
Wed 01:40:00 AM 50.7592 8.1192 303° West  Level Estimated
Wed 01:41:00 AM 50.7951 8.0298 302° West  Level Estimated
Wed 01:42:00 AM 50.8309 7.9402 302° West  Level Estimated
Wed 01:43:00 AM 50.8667 7.8506 302° West  Level Estimated
Wed 01:44:00 AM 50.9024 7.7607 302° West  Level Estimated
Wed 01:45:00 AM 50.9381 7.6708 302° West  Level Estimated
Wed 01:46:00 AM 50.9736 7.5807 302° West  Level Estimated
Wed 01:47:00 AM 51.0091 7.4905 302° West  Level Estimated
Wed 01:48:00 AM 51.0446 7.4001 302° West  Level Estimated
Wed 01:49:00 AM 51.0799 7.3096 302° West  Level Estimated
Wed 01:50:00 AM 51.1152 7.2190 302° West  Level Estimated
Wed 01:51:00 AM 51.1504 7.1282 302° West  Level Estimated
Wed 01:52:00 AM 51.1856 7.0373 302° West  Level Estimated
Wed 01:53:00 AM 51.2207 6.9462 302° West  Level Estimated
Wed 01:54:00 AM 51.2557 6.8550 302° West  Level Estimated
Wed 01:55:00 AM 51.2895 6.7668 301° West  Level Estimated
Wed 01:56:00 AM 51.2895 6.7668 314° West  Level Estimated
Wed 01:57:00 AM 51.2895 6.7668 46° Northeast  Level Estimated
Wed 01:58:00 AM 51.2895 6.7668 314° West  Level Estimated
Wed 01:59:00 AM 51.2895 6.7668 46° Northeast  Level Estimated
Wed 02:00:00 AM 51.2895 6.7668 314° West  Level Estimated
Wed 02:01:00 AM 51.2895 6.7668 46° Northeast  Level Estimated
Wed 02:02:00 AM 51.2895 6.7668 314° West  Level Estimated
Wed 02:03:00 AM 51.2895 6.7668 46° Northeast  Level Estimated
Wed 02:04:00 AM 51.2895 6.7668 314° West  Level Estimated
Wed 02:05:00 AM 51.2895 6.7668 46° Northeast  Level Estimated
Wed 02:06:00 AM 51.2895 6.7668 314° West  Level Estimated
Wed 02:07:00 AM 51.2895 6.7668 46° Northeast  Level Estimated
Wed 02:08:00 AM 51.2895 6.7668 314° West  Level Estimated
Wed 02:09:00 AM 51.2895 6.7668 46° Northeast  Level Estimated
Wed 02:10:00 AM 51.2895 6.7668 314° West  Level Estimated
Wed 02:11:00 AM 51.2895 6.7668 46° Northeast  Level Estimated

Login

Don't have an account? Register now (free) for customized features, flight alerts, and more!